createdAt,value
2023-04-27T00:01:18.938Z,61.12
2023-04-27T00:03:46.829Z,61.21
2023-04-27T00:06:14.564Z,61.08
2023-04-27T00:08:42.273Z,61.26
2023-04-27T00:11:09.961Z,61.25
2023-04-27T00:13:37.465Z,61.36
2023-04-27T00:16:05.427Z,61.19
2023-04-27T00:18:33.096Z,60.83
2023-04-27T00:21:01.144Z,60.26
2023-04-27T00:23:28.872Z,60.00
2023-04-27T00:25:56.584Z,59.71
2023-04-27T00:28:24.109Z,59.36
2023-04-27T00:30:54.667Z,58.99
2023-04-27T00:33:22.203Z,59.08
2023-04-27T00:35:49.830Z,59.30
2023-04-27T00:38:17.522Z,59.41
2023-04-27T00:40:45.149Z,59.50
2023-04-27T00:43:12.942Z,59.21
2023-04-27T00:45:43.590Z,59.23
2023-04-27T00:48:12.488Z,59.38
2023-04-27T00:50:41.980Z,59.71
2023-04-27T00:53:09.653Z,59.78
2023-04-27T00:55:37.171Z,60.13
2023-04-27T00:58:04.872Z,60.35
2023-04-27T01:00:32.757Z,60.57
2023-04-27T01:03:02.791Z,60.76
2023-04-27T01:05:32.486Z,60.60
2023-04-27T01:08:00.481Z,60.69
2023-04-27T01:10:28.678Z,60.83
2023-04-27T01:12:56.474Z,61.09
2023-04-27T01:15:24.183Z,61.21
2023-04-27T01:18:01.514Z,61.81
2023-04-27T01:20:32.821Z,61.23
2023-04-27T01:23:00.437Z,61.34
2023-04-27T01:25:27.987Z,61.42
2023-04-27T01:27:55.577Z,61.52
2023-04-27T01:30:23.383Z,61.73
2023-04-27T01:32:51.140Z,61.77
2023-04-27T01:35:20.507Z,62.12
2023-04-27T01:37:48.178Z,62.25
2023-04-27T01:40:18.644Z,61.94
2023-04-27T01:42:48.210Z,61.96
2023-04-27T01:45:16.213Z,62.07
2023-04-27T01:47:44.080Z,62.27
2023-04-27T01:50:12.616Z,62.39
2023-04-27T01:52:40.725Z,62.58
2023-04-27T01:55:10.197Z,62.83
2023-04-27T01:57:38.536Z,62.87
2023-04-27T02:00:07.011Z,62.91
2023-04-27T02:02:57.597Z,62.73
2023-04-27T02:05:25.483Z,62.82
2023-04-27T02:07:54.660Z,63.04
2023-04-27T02:10:23.974Z,63.19
2023-04-27T02:12:57.582Z,63.07
2023-04-27T02:15:26.063Z,63.13
2023-04-27T02:17:53.785Z,63.04
2023-04-27T02:20:21.528Z,63.35
2023-04-27T02:22:49.192Z,63.18
2023-04-27T02:25:17.092Z,63.33
2023-04-27T02:27:44.916Z,63.54
2023-04-27T02:30:14.949Z,63.30
2023-04-27T02:32:42.931Z,63.25
2023-04-27T02:35:11.146Z,63.17
2023-04-27T02:37:38.768Z,63.33
2023-04-27T02:40:10.376Z,63.61
2023-04-27T02:42:39.087Z,63.41
2023-04-27T02:45:08.374Z,63.43
2023-04-27T02:47:37.922Z,63.31
2023-04-27T02:50:06.083Z,63.35
2023-04-27T02:52:35.843Z,63.53
2023-04-27T02:55:04.061Z,63.16
2023-04-27T02:57:33.988Z,62.94
2023-04-27T03:00:03.606Z,63.05
2023-04-27T03:02:32.855Z,62.89
2023-04-27T03:05:03.956Z,62.69
2023-04-27T03:07:32.265Z,62.53
2023-04-27T03:09:59.855Z,62.44
2023-04-27T03:12:31.720Z,61.93
2023-04-27T03:15:01.213Z,61.89
2023-04-27T03:17:32.197Z,61.58
2023-04-27T03:19:59.837Z,61.16
2023-04-27T03:22:27.724Z,60.88
2023-04-27T03:24:55.270Z,60.86
2023-04-27T03:27:23.238Z,60.51
2023-04-27T03:29:54.322Z,60.08
2023-04-27T03:32:22.285Z,59.30
2023-04-27T03:34:49.903Z,58.66
2023-04-27T03:37:18.445Z,58.70
2023-04-27T03:39:46.087Z,58.20
2023-04-27T03:42:14.015Z,57.46
2023-04-27T03:44:41.746Z,56.97
2023-04-27T03:47:09.909Z,56.28
2023-04-27T03:49:39.781Z,56.30
2023-04-27T03:52:08.712Z,56.00
2023-04-27T03:54:39.960Z,55.55
2023-04-27T03:57:07.837Z,55.15
2023-04-27T03:59:36.778Z,54.58
2023-04-27T04:02:05.874Z,54.17
2023-04-27T04:04:33.761Z,54.02
2023-04-27T04:07:01.863Z,53.69
2023-04-27T04:09:29.764Z,53.54
2023-04-27T04:11:57.989Z,53.25
2023-04-27T04:14:25.728Z,53.20
2023-04-27T04:16:53.254Z,52.61
2023-04-27T04:19:22.275Z,52.28
2023-04-27T04:21:50.061Z,51.80
2023-04-27T04:24:19.073Z,51.31
2023-04-27T04:26:47.326Z,51.25
2023-04-27T04:29:15.512Z,50.15
2023-04-27T04:31:43.693Z,49.50
2023-04-27T04:34:11.494Z,49.34
2023-04-27T04:36:38.969Z,49.22
2023-04-27T04:39:07.220Z,49.11
2023-04-27T04:41:34.855Z,48.95
2023-04-27T04:44:03.288Z,48.30
2023-04-27T04:46:31.108Z,47.89
2023-04-27T04:48:58.852Z,47.14
2023-04-27T04:51:26.575Z,46.98
2023-04-27T04:53:54.139Z,46.42
2023-04-27T04:56:24.035Z,45.99
2023-04-27T04:58:52.049Z,45.68
2023-04-27T05:01:19.667Z,45.08
2023-04-27T05:03:49.523Z,44.73
2023-04-27T05:06:17.170Z,43.96
2023-04-27T05:08:44.639Z,43.80
2023-04-27T05:11:12.146Z,43.51
2023-04-27T05:13:40.478Z,43.13
2023-04-27T05:16:08.880Z,42.84
2023-04-27T05:18:36.589Z,42.75
2023-04-27T05:21:04.079Z,42.58
2023-04-27T05:23:31.665Z,42.16
2023-04-27T05:25:59.205Z,41.81
2023-04-27T05:28:27.229Z,41.66
2023-04-27T05:30:55.176Z,41.25
2023-04-27T05:33:23.644Z,40.57
2023-04-27T05:35:52.482Z,40.06
2023-04-27T05:38:19.932Z,39.29
2023-04-27T05:40:47.619Z,39.43
2023-04-27T05:43:15.584Z,39.86
2023-04-27T05:45:43.408Z,39.91
2023-04-27T05:48:11.054Z,39.60
2023-04-27T05:50:38.755Z,39.70
2023-04-27T05:53:07.244Z,39.20
2023-04-27T05:55:34.807Z,38.48
2023-04-27T05:58:08.231Z,38.67
2023-04-27T06:00:37.258Z,38.31
2023-04-27T06:03:05.372Z,38.41
2023-04-27T06:05:34.609Z,38.45
2023-04-27T06:08:02.414Z,38.29
2023-04-27T06:10:30.131Z,37.81
2023-04-27T06:13:00.917Z,37.33
2023-04-27T06:15:28.845Z,37.35
2023-04-27T06:17:56.924Z,37.24
2023-04-27T06:20:24.691Z,37.16
2023-04-27T06:22:52.701Z,36.41
2023-04-27T06:25:20.290Z,36.41
2023-04-27T06:27:49.499Z,35.91
2023-04-27T06:30:17.888Z,35.41
2023-04-27T06:32:46.205Z,34.88
2023-04-27T06:35:13.988Z,34.78
2023-04-27T06:37:42.003Z,34.26
2023-04-27T06:40:09.950Z,33.74
2023-04-27T06:42:37.982Z,33.44
2023-04-27T06:45:07.381Z,32.89
2023-04-27T06:47:35.213Z,32.72
2023-04-27T06:50:04.173Z,32.13
2023-04-27T06:52:33.826Z,31.67
2023-04-27T06:55:01.632Z,31.38
2023-04-27T06:57:32.791Z,31.17
2023-04-27T07:00:00.754Z,30.59
2023-04-27T07:02:28.535Z,30.37
2023-04-27T07:04:56.247Z,29.98
2023-04-27T07:07:24.089Z,29.40
2023-04-27T07:09:51.960Z,29.00
2023-04-27T07:12:19.540Z,28.44
2023-04-27T07:14:47.161Z,28.48
2023-04-27T07:17:14.723Z,28.06
2023-04-27T07:19:42.499Z,27.28
2023-04-27T07:22:10.348Z,26.61
2023-04-27T07:24:37.993Z,26.09
2023-04-27T07:27:05.575Z,25.60
2023-04-27T07:29:33.792Z,25.52
2023-04-27T07:32:02.335Z,24.85
2023-04-27T07:34:41.180Z,24.73
2023-04-27T07:37:17.636Z,25.18
2023-04-27T07:39:45.105Z,24.92
2023-04-27T07:42:12.739Z,24.76
2023-04-27T07:44:41.063Z,24.07
2023-04-27T07:47:09.109Z,24.62
2023-04-27T07:49:38.446Z,24.09
2023-04-27T07:52:06.263Z,23.84
2023-04-27T07:54:35.132Z,23.79
2023-04-27T07:57:09.116Z,23.81
2023-04-27T07:59:37.211Z,24.04
2023-04-27T08:02:18.573Z,23.84
2023-04-27T08:04:48.956Z,23.75
2023-04-27T08:07:18.004Z,23.66
2023-04-27T08:09:45.954Z,23.19
2023-04-27T08:12:13.898Z,23.07
2023-04-27T08:14:41.479Z,22.20
2023-04-27T08:17:09.297Z,21.68
2023-04-27T08:19:37.260Z,20.78
2023-04-27T08:22:05.227Z,20.60
2023-04-27T08:24:33.079Z,20.65
2023-04-27T08:27:01.077Z,20.40
2023-04-27T08:29:29.340Z,19.74
2023-04-27T08:32:00.121Z,18.76
2023-04-27T08:34:29.211Z,18.79
2023-04-27T08:36:57.349Z,18.30
2023-04-27T08:39:25.621Z,18.19
2023-04-27T08:41:53.570Z,17.99
2023-04-27T08:44:21.290Z,18.05
2023-04-27T08:46:49.724Z,18.16
2023-04-27T08:49:17.931Z,17.55
2023-04-27T08:51:45.662Z,17.59
2023-04-27T08:54:13.333Z,17.23
2023-04-27T08:56:41.055Z,17.64
2023-04-27T08:59:16.295Z,17.99
2023-04-27T09:01:46.534Z,17.89
2023-04-27T09:04:14.592Z,17.69
2023-04-27T09:06:42.474Z,16.92
2023-04-27T09:09:11.512Z,16.81
2023-04-27T09:11:39.832Z,17.07
2023-04-27T09:14:21.038Z,17.18
2023-04-27T09:16:59.464Z,16.47
2023-04-27T09:19:29.399Z,16.73
2023-04-27T09:22:07.676Z,16.45
2023-04-27T09:24:35.869Z,16.31
2023-04-27T09:27:05.236Z,15.82
2023-04-27T09:29:38.111Z,15.39
2023-04-27T09:32:20.898Z,14.84
2023-04-27T09:34:48.637Z,15.08
2023-04-27T09:37:16.764Z,14.98
2023-04-27T09:39:46.348Z,14.60
2023-04-27T09:42:14.015Z,13.75
2023-04-27T09:44:41.629Z,14.10
2023-04-27T09:47:10.892Z,14.37
2023-04-27T09:49:39.014Z,14.31
2023-04-27T09:52:06.771Z,14.54
2023-04-27T09:54:35.912Z,14.21
2023-04-27T09:57:46.870Z,13.93
2023-04-27T10:00:23.638Z,13.93
2023-04-27T10:03:00.082Z,13.33
2023-04-27T10:05:41.138Z,13.68
2023-04-27T10:08:10.475Z,13.88
2023-04-27T10:10:48.756Z,14.80
2023-04-27T10:13:24.893Z,14.96
2023-04-27T10:15:53.731Z,14.72
2023-04-27T10:18:31.288Z,13.76
2023-04-27T10:21:10.678Z,13.38
2023-04-27T10:23:48.572Z,12.92
2023-04-27T10:26:26.737Z,12.54
2023-04-27T10:29:01.208Z,11.68
2023-04-27T10:31:30.114Z,12.31
2023-04-27T10:34:11.422Z,12.22
2023-04-27T10:36:41.093Z,13.81
2023-04-27T10:39:25.561Z,15.70
2023-04-27T10:42:01.209Z,17.37
2023-04-27T10:44:31.369Z,19.25
2023-04-27T10:47:01.659Z,20.83
2023-04-27T10:49:30.769Z,21.89
2023-04-27T10:51:59.849Z,23.24
2023-04-27T10:54:29.215Z,23.71
2023-04-27T10:57:10.985Z,24.34
2023-04-27T10:59:52.439Z,24.91
2023-04-27T11:02:28.268Z,26.35
2023-04-27T11:04:56.749Z,26.91
2023-04-27T11:07:29.271Z,29.47
2023-04-27T11:09:57.058Z,33.05
2023-04-27T11:12:24.864Z,36.41
2023-04-27T11:14:58.669Z,39.04
2023-04-27T11:17:30.741Z,41.34
2023-04-27T11:19:58.358Z,41.21
2023-04-27T11:22:26.039Z,40.83
2023-04-27T11:24:53.825Z,37.32
2023-04-27T11:27:23.503Z,32.01
2023-04-27T11:29:51.185Z,30.91
2023-04-27T11:32:23.423Z,26.50
2023-04-27T11:34:54.669Z,23.40
2023-04-27T11:37:25.687Z,22.67
2023-04-27T11:40:00.074Z,22.43
2023-04-27T11:42:29.021Z,21.80
2023-04-27T11:45:11.126Z,22.54
2023-04-27T11:47:41.094Z,23.53
2023-04-27T11:50:09.460Z,22.90
2023-04-27T11:52:40.331Z,21.42
2023-04-27T11:55:10.826Z,21.02
2023-04-27T11:57:38.980Z,22.60
2023-04-27T12:00:11.484Z,24.09
2023-04-27T12:02:44.735Z,25.58
2023-04-27T12:05:15.556Z,24.31
2023-04-27T12:07:43.623Z,24.38
2023-04-27T12:10:11.920Z,23.98
2023-04-27T12:12:39.648Z,23.91
2023-04-27T12:15:08.684Z,23.14
2023-04-27T12:17:39.217Z,22.64
2023-04-27T12:20:07.445Z,22.73
2023-04-27T12:22:36.342Z,22.65
2023-04-27T12:25:05.386Z,22.61
2023-04-27T12:27:34.507Z,22.60
2023-04-27T12:30:02.228Z,22.66
2023-04-27T12:32:33.019Z,21.64
2023-04-27T12:35:00.786Z,20.54
2023-04-27T12:37:31.621Z,20.15
2023-04-27T12:39:59.253Z,19.49
2023-04-27T12:42:26.968Z,19.53
2023-04-27T12:44:54.746Z,19.35
2023-04-27T12:47:43.110Z,18.94
2023-04-27T12:50:10.247Z,18.44
2023-04-27T12:52:37.890Z,19.35
2023-04-27T12:55:06.491Z,20.06
2023-04-27T12:57:34.505Z,20.02
2023-04-27T13:00:02.451Z,19.39
2023-04-27T13:02:34.118Z,18.64
2023-04-27T13:05:02.172Z,18.38
2023-04-27T13:07:31.254Z,18.74
2023-04-27T13:09:58.843Z,20.68
2023-04-27T13:12:26.840Z,22.06
2023-04-27T13:14:54.520Z,22.85
2023-04-27T13:17:22.253Z,24.88
2023-04-27T13:19:49.776Z,26.43
2023-04-27T13:22:17.426Z,27.44
2023-04-27T13:24:45.287Z,28.34
2023-04-27T13:27:13.057Z,28.41
2023-04-27T13:29:40.709Z,28.87
2023-04-27T13:32:08.403Z,28.88
2023-04-27T13:34:36.055Z,29.38
2023-04-27T13:37:04.383Z,29.94
2023-04-27T13:39:34.338Z,31.20
2023-04-27T13:42:02.178Z,30.84
2023-04-27T13:44:29.784Z,30.80
2023-04-27T13:46:57.769Z,31.01
2023-04-27T13:49:26.087Z,31.45
2023-04-27T13:51:53.608Z,31.45
2023-04-27T13:54:21.655Z,31.68
2023-04-27T13:56:49.270Z,31.76
2023-04-27T13:59:17.334Z,31.82
2023-04-27T14:01:45.051Z,31.95
2023-04-27T14:04:12.764Z,32.14
2023-04-27T14:06:40.646Z,32.70
2023-04-27T14:09:09.437Z,33.06
2023-04-27T14:11:48.605Z,33.43
2023-04-27T14:14:20.954Z,33.36
2023-04-27T14:16:49.066Z,33.64
2023-04-27T14:19:17.336Z,33.38
2023-04-27T14:21:45.521Z,33.22
2023-04-27T14:24:13.561Z,33.11
2023-04-27T14:26:44.126Z,33.36
2023-04-27T14:29:12.179Z,33.21
2023-04-27T14:31:40.885Z,33.52
2023-04-27T14:34:09.011Z,33.59
2023-04-27T14:36:36.755Z,33.67
2023-04-27T14:39:06.582Z,34.04
2023-04-27T14:41:35.621Z,34.07
2023-04-27T14:44:04.746Z,34.33
2023-04-27T14:46:32.474Z,34.46
2023-04-27T14:49:00.173Z,34.65
2023-04-27T14:51:28.970Z,34.94
2023-04-27T14:53:56.489Z,34.78
2023-04-27T14:56:24.280Z,34.69
2023-04-27T14:58:51.824Z,34.74
2023-04-27T15:01:19.549Z,35.03
2023-04-27T15:03:47.514Z,34.85
2023-04-27T15:06:15.501Z,34.85
2023-04-27T15:08:43.031Z,35.12
2023-04-27T15:11:10.825Z,35.22
2023-04-27T15:13:38.322Z,35.08
2023-04-27T15:16:07.463Z,35.18
2023-04-27T15:18:35.483Z,34.97
2023-04-27T15:21:03.878Z,34.89
2023-04-27T15:23:31.878Z,35.08
2023-04-27T15:25:59.467Z,35.02
2023-04-27T15:28:26.922Z,35.16
2023-04-27T15:30:54.638Z,35.08
2023-04-27T15:33:22.502Z,35.41
2023-04-27T15:35:50.644Z,35.39
2023-04-27T15:38:18.346Z,35.74
2023-04-27T15:40:45.856Z,35.81
2023-04-27T15:43:15.067Z,35.70
2023-04-27T15:45:44.186Z,35.67
2023-04-27T15:48:12.299Z,35.84
2023-04-27T15:50:40.268Z,35.95
2023-04-27T15:53:07.979Z,36.12
2023-04-27T15:55:35.617Z,36.29
2023-04-27T15:58:03.564Z,36.10
2023-04-27T16:00:31.240Z,36.40
2023-04-27T16:02:59.054Z,36.51
2023-04-27T16:05:26.986Z,36.27
2023-04-27T16:07:54.495Z,36.29
2023-04-27T16:10:22.073Z,36.53
2023-04-27T16:12:50.423Z,36.80
2023-04-27T16:15:18.578Z,36.74
2023-04-27T16:17:46.554Z,36.89
2023-04-27T16:20:14.327Z,37.27
2023-04-27T16:22:41.953Z,37.15
2023-04-27T16:25:12.576Z,36.98
2023-04-27T16:27:40.166Z,37.26
2023-04-27T16:30:08.309Z,37.34
2023-04-27T16:32:37.433Z,37.50
2023-04-27T16:35:05.625Z,37.54
2023-04-27T16:37:33.998Z,37.61
2023-04-27T16:40:06.867Z,37.74
2023-04-27T16:42:34.998Z,37.92
2023-04-27T16:45:03.105Z,38.13
2023-04-27T16:47:34.458Z,38.13
2023-04-27T16:50:02.549Z,37.94
2023-04-27T16:52:32.879Z,38.10
2023-04-27T16:55:00.737Z,38.48
2023-04-27T16:57:28.815Z,38.57
2023-04-27T17:00:01.095Z,38.71
2023-04-27T17:02:29.373Z,38.51
2023-04-27T17:04:59.654Z,38.54
2023-04-27T17:07:32.844Z,39.15
2023-04-27T17:10:00.744Z,39.42
2023-04-27T17:12:28.365Z,39.41
2023-04-27T17:14:56.302Z,39.28
2023-04-27T17:17:23.894Z,39.44
2023-04-27T17:19:51.609Z,39.58
2023-04-27T17:22:19.287Z,39.83
2023-04-27T17:24:46.963Z,39.58
2023-04-27T17:27:14.695Z,39.73
2023-04-27T17:29:42.215Z,39.96
2023-04-27T17:32:09.948Z,39.90
2023-04-27T17:34:37.721Z,40.07
2023-04-27T17:37:05.481Z,40.29
2023-04-27T17:39:33.773Z,40.43
2023-04-27T17:42:01.691Z,40.58
2023-04-27T17:44:29.316Z,40.41
2023-04-27T17:46:57.136Z,40.38
2023-04-27T17:49:24.687Z,40.65
2023-04-27T17:51:52.392Z,40.70
2023-04-27T17:54:19.974Z,40.91
2023-04-27T17:56:47.859Z,41.05
2023-04-27T17:59:15.596Z,41.18
2023-04-27T18:01:43.865Z,41.31
2023-04-27T18:04:11.501Z,41.15
2023-04-27T18:06:39.274Z,41.35
2023-04-27T18:09:06.884Z,41.46
2023-04-27T18:11:47.676Z,41.87
2023-04-27T18:14:15.704Z,41.71
2023-04-27T18:16:44.057Z,41.91
2023-04-27T18:19:12.236Z,42.10
2023-04-27T18:21:40.131Z,41.98
2023-04-27T18:24:08.603Z,42.22
2023-04-27T18:26:36.929Z,42.13
2023-04-27T18:29:04.638Z,42.37
2023-04-27T18:31:32.535Z,42.28
2023-04-27T18:34:00.155Z,42.34
2023-04-27T18:36:28.308Z,42.40
2023-04-27T18:38:58.064Z,42.35
2023-04-27T18:41:26.101Z,42.58
2023-04-27T18:43:53.725Z,42.73
2023-04-27T18:46:21.536Z,42.88
2023-04-27T18:48:49.186Z,42.99
2023-04-27T18:51:16.867Z,43.25
2023-04-27T18:53:44.360Z,43.30
2023-04-27T18:56:12.384Z,43.29
2023-04-27T18:58:39.918Z,43.35
2023-04-27T19:01:07.485Z,43.41
2023-04-27T19:03:35.375Z,43.59
2023-04-27T19:06:03.159Z,43.44
2023-04-27T19:08:30.898Z,43.65
2023-04-27T19:10:58.638Z,43.76
2023-04-27T19:13:27.386Z,43.73
2023-04-27T19:15:55.195Z,43.89
2023-04-27T19:18:22.946Z,43.92
2023-04-27T19:20:51.731Z,44.14
2023-04-27T19:23:19.509Z,44.23
2023-04-27T19:25:48.443Z,44.35
2023-04-27T19:28:18.858Z,44.47
2023-04-27T19:30:47.643Z,44.52
2023-04-27T19:33:19.645Z,44.54
2023-04-27T19:35:47.905Z,44.68
2023-04-27T19:38:15.441Z,44.73
2023-04-27T19:40:43.087Z,44.60
2023-04-27T19:43:12.005Z,44.94
2023-04-27T19:45:41.970Z,44.94
2023-04-27T19:48:09.639Z,45.03
2023-04-27T19:50:41.300Z,45.18
2023-04-27T19:53:09.106Z,45.33
2023-04-27T19:55:37.210Z,45.23
2023-04-27T19:58:04.872Z,45.12
2023-04-27T20:00:32.670Z,45.58
2023-04-27T20:03:00.509Z,45.70
2023-04-27T20:05:28.589Z,45.80
2023-04-27T20:07:56.321Z,45.79
2023-04-27T20:10:23.856Z,46.15
2023-04-27T20:12:56.887Z,46.06
2023-04-27T20:15:25.800Z,46.11
2023-04-27T20:17:53.874Z,46.30
2023-04-27T20:20:21.577Z,46.29
2023-04-27T20:22:49.683Z,46.49
2023-04-27T20:25:17.209Z,46.46
2023-04-27T20:27:44.854Z,46.76
2023-04-27T20:30:12.447Z,46.73
2023-04-27T20:32:40.507Z,46.83
2023-04-27T20:35:11.533Z,46.91
2023-04-27T20:37:42.051Z,47.00
2023-04-27T20:40:14.563Z,47.09
2023-04-27T20:42:42.655Z,47.28
2023-04-27T20:45:11.643Z,47.12
2023-04-27T20:47:39.299Z,47.46
2023-04-27T20:50:08.232Z,47.45
2023-04-27T20:52:36.005Z,47.60
2023-04-27T20:55:04.620Z,47.36
2023-04-27T20:57:32.462Z,47.53
2023-04-27T21:00:00.263Z,47.77
2023-04-27T21:02:28.017Z,47.85
2023-04-27T21:04:55.783Z,48.02
2023-04-27T21:07:23.487Z,48.43
2023-04-27T21:09:52.453Z,48.40
2023-04-27T21:12:20.070Z,48.46
2023-04-27T21:14:48.137Z,48.86
2023-04-27T21:17:15.724Z,48.95
2023-04-27T21:19:43.517Z,49.12
2023-04-27T21:22:11.269Z,48.83
2023-04-27T21:24:38.786Z,49.36
2023-04-27T21:27:06.597Z,49.52
2023-04-27T21:29:37.357Z,49.83
2023-04-27T21:32:05.120Z,49.96
2023-04-27T21:34:32.750Z,49.97
2023-04-27T21:37:00.277Z,50.04
2023-04-27T21:39:27.980Z,50.10
2023-04-27T21:41:55.550Z,50.53
2023-04-27T21:44:23.178Z,50.53
2023-04-27T21:46:51.543Z,50.50
2023-04-27T21:49:19.340Z,50.61
2023-04-27T21:51:46.966Z,50.67
2023-04-27T21:54:14.670Z,50.58
2023-04-27T21:56:42.702Z,50.82
2023-04-27T21:59:10.296Z,51.05
2023-04-27T22:01:38.000Z,51.15
2023-04-27T22:04:06.432Z,51.15
2023-04-27T22:06:34.153Z,50.90
2023-04-27T22:09:02.028Z,51.06
2023-04-27T22:11:29.760Z,51.28
2023-04-27T22:13:57.441Z,51.44
2023-04-27T22:16:25.051Z,51.50
2023-04-27T22:18:53.925Z,51.47
2023-04-27T22:21:21.666Z,51.72
2023-04-27T22:23:49.303Z,51.64
2023-04-27T22:26:17.293Z,51.73
2023-04-27T22:28:44.839Z,51.77
2023-04-27T22:31:12.536Z,51.66
2023-04-27T22:33:40.191Z,51.69
2023-04-27T22:36:08.148Z,51.92
2023-04-27T22:38:35.865Z,52.17
2023-04-27T22:41:03.399Z,52.42
2023-04-27T22:43:31.007Z,52.48
2023-04-27T22:45:58.498Z,52.70
2023-04-27T22:48:26.107Z,52.87
2023-04-27T22:50:53.699Z,53.23
2023-04-27T22:53:21.677Z,53.45
2023-04-27T22:55:49.299Z,53.30
2023-04-27T22:58:16.850Z,53.32
2023-04-27T23:00:44.453Z,53.47
2023-04-27T23:03:12.287Z,53.75
2023-04-27T23:05:40.220Z,54.21
2023-04-27T23:08:07.724Z,54.09
2023-04-27T23:10:38.798Z,54.15
2023-04-27T23:13:07.365Z,54.42
2023-04-27T23:15:35.012Z,54.62
2023-04-27T23:18:02.678Z,54.78
2023-04-27T23:20:30.372Z,54.73
2023-04-27T23:22:58.102Z,54.78
2023-04-27T23:25:25.670Z,54.83
2023-04-27T23:27:53.445Z,54.77
2023-04-27T23:30:22.090Z,55.07
2023-04-27T23:32:50.105Z,55.23
2023-04-27T23:35:17.852Z,55.11
2023-04-27T23:37:45.436Z,55.26
2023-04-27T23:40:13.249Z,55.26
2023-04-27T23:42:40.826Z,55.58
2023-04-27T23:45:08.597Z,55.37
2023-04-27T23:47:37.142Z,55.36
2023-04-27T23:50:05.324Z,55.60
2023-04-27T23:52:34.580Z,55.83
2023-04-27T23:55:02.274Z,55.83
2023-04-27T23:57:33.574Z,56.03
